sensor_id;sensor_type;location;lat;lon;timestamp;P1;durP1;ratioP1;P2;durP2;ratioP2
43933;SDS011;59081;42.706;23.306;2023-02-25T00:02:08;39.20;;;19.35;;
43933;SDS011;59081;42.706;23.306;2023-02-25T00:04:33;43.10;;;21.67;;
43933;SDS011;59081;42.706;23.306;2023-02-25T00:07:00;45.45;;;22.33;;
43933;SDS011;59081;42.706;23.306;2023-02-25T00:09:26;43.10;;;20.15;;
43933;SDS011;59081;42.706;23.306;2023-02-25T00:11:52;42.88;;;20.52;;
43933;SDS011;59081;42.706;23.306;2023-02-25T00:14:18;43.28;;;22.15;;
43933;SDS011;59081;42.706;23.306;2023-02-25T00:16:44;47.03;;;21.20;;
43933;SDS011;59081;42.706;23.306;2023-02-25T00:19:10;41.33;;;21.48;;
43933;SDS011;59081;42.706;23.306;2023-02-25T00:21:35;44.45;;;21.38;;
43933;SDS011;59081;42.706;23.306;2023-02-25T00:24:02;41.30;;;21.23;;
43933;SDS011;59081;42.706;23.306;2023-02-25T00:26:28;40.20;;;20.10;;
43933;SDS011;59081;42.706;23.306;2023-02-25T00:28:53;45.63;;;22.20;;
43933;SDS011;59081;42.706;23.306;2023-02-25T00:31:20;45.85;;;21.75;;
43933;SDS011;59081;42.706;23.306;2023-02-25T00:33:48;44.83;;;22.48;;
43933;SDS011;59081;42.706;23.306;2023-02-25T00:36:16;39.05;;;20.33;;
43933;SDS011;59081;42.706;23.306;2023-02-25T00:38:45;45.15;;;20.80;;
43933;SDS011;59081;42.706;23.306;2023-02-25T00:41:12;41.65;;;21.33;;
43933;SDS011;59081;42.706;23.306;2023-02-25T00:43:41;41.70;;;20.60;;
43933;SDS011;59081;42.706;23.306;2023-02-25T00:46:12;40.95;;;21.33;;
43933;SDS011;59081;42.706;23.306;2023-02-25T00:48:38;44.00;;;22.55;;
43933;SDS011;59081;42.706;23.306;2023-02-25T00:51:07;45.35;;;23.27;;
43933;SDS011;59081;42.706;23.306;2023-02-25T00:53:34;43.25;;;21.85;;
43933;SDS011;59081;42.706;23.306;2023-02-25T00:56:01;46.53;;;21.58;;
43933;SDS011;59081;42.706;23.306;2023-02-25T00:58:28;44.40;;;20.90;;
43933;SDS011;59081;42.706;23.306;2023-02-25T01:00:53;40.05;;;20.15;;
43933;SDS011;59081;42.706;23.306;2023-02-25T01:03:19;48.35;;;22.92;;
43933;SDS011;59081;42.706;23.306;2023-02-25T01:05:44;32.17;;;13.82;;
43933;SDS011;59081;42.706;23.306;2023-02-25T01:08:14;39.90;;;19.35;;
43933;SDS011;59081;42.706;23.306;2023-02-25T01:10:44;40.85;;;19.52;;
43933;SDS011;59081;42.706;23.306;2023-02-25T01:13:11;38.78;;;19.48;;
43933;SDS011;59081;42.706;23.306;2023-02-25T01:15:37;42.70;;;21.27;;
43933;SDS011;59081;42.706;23.306;2023-02-25T01:18:03;37.65;;;19.73;;
43933;SDS011;59081;42.706;23.306;2023-02-25T01:20:29;36.35;;;19.58;;
43933;SDS011;59081;42.706;23.306;2023-02-25T01:22:55;36.60;;;19.70;;
43933;SDS011;59081;42.706;23.306;2023-02-25T01:25:21;41.28;;;21.45;;
43933;SDS011;59081;42.706;23.306;2023-02-25T01:27:52;39.30;;;20.50;;
43933;SDS011;59081;42.706;23.306;2023-02-25T01:30:19;38.55;;;19.88;;
43933;SDS011;59081;42.706;23.306;2023-02-25T01:32:45;47.13;;;19.00;;
43933;SDS011;59081;42.706;23.306;2023-02-25T01:35:11;40.42;;;19.05;;
43933;SDS011;59081;42.706;23.306;2023-02-25T01:37:37;37.33;;;20.23;;
43933;SDS011;59081;42.706;23.306;2023-02-25T01:40:03;38.70;;;19.40;;
43933;SDS011;59081;42.706;23.306;2023-02-25T01:42:30;31.27;;;17.95;;
43933;SDS011;59081;42.706;23.306;2023-02-25T01:47:50;40.80;;;19.67;;
43933;SDS011;59081;42.706;23.306;2023-02-25T01:50:25;37.88;;;19.25;;
43933;SDS011;59081;42.706;23.306;2023-02-25T01:52:56;43.80;;;20.05;;
43933;SDS011;59081;42.706;23.306;2023-02-25T01:55:26;36.03;;;18.90;;
43933;SDS011;59081;42.706;23.306;2023-02-25T01:57:52;39.85;;;19.42;;
43933;SDS011;59081;42.706;23.306;2023-02-25T02:00:17;38.05;;;21.80;;
43933;SDS011;59081;42.706;23.306;2023-02-25T02:02:44;36.92;;;18.55;;
43933;SDS011;59081;42.706;23.306;2023-02-25T02:05:13;38.72;;;18.75;;
43933;SDS011;59081;42.706;23.306;2023-02-25T02:07:39;62.45;;;22.25;;
43933;SDS011;59081;42.706;23.306;2023-02-25T02:10:05;35.60;;;17.35;;
43933;SDS011;59081;42.706;23.306;2023-02-25T02:12:33;31.05;;;17.38;;
43933;SDS011;59081;42.706;23.306;2023-02-25T02:15:03;34.03;;;17.85;;
43933;SDS011;59081;42.706;23.306;2023-02-25T02:17:32;40.03;;;17.17;;
43933;SDS011;59081;42.706;23.306;2023-02-25T02:25:35;30.10;;;17.08;;
43933;SDS011;59081;42.706;23.306;2023-02-25T02:30:41;37.67;;;16.75;;
43933;SDS011;59081;42.706;23.306;2023-02-25T02:35:53;34.13;;;16.67;;
43933;SDS011;59081;42.706;23.306;2023-02-25T02:38:34;30.73;;;15.38;;
43933;SDS011;59081;42.706;23.306;2023-02-25T02:41:16;33.65;;;15.30;;
43933;SDS011;59081;42.706;23.306;2023-02-25T02:44:07;29.30;;;15.30;;
43933;SDS011;59081;42.706;23.306;2023-02-25T02:46:34;27.63;;;13.73;;
43933;SDS011;59081;42.706;23.306;2023-02-25T02:49:06;25.13;;;15.13;;
43933;SDS011;59081;42.706;23.306;2023-02-25T02:54:23;30.05;;;14.57;;
43933;SDS011;59081;42.706;23.306;2023-02-25T02:56:53;26.63;;;14.15;;
43933;SDS011;59081;42.706;23.306;2023-02-25T02:59:25;32.88;;;15.98;;
43933;SDS011;59081;42.706;23.306;2023-02-25T03:02:00;22.65;;;12.90;;
43933;SDS011;59081;42.706;23.306;2023-02-25T03:04:37;25.58;;;13.90;;
43933;SDS011;59081;42.706;23.306;2023-02-25T03:07:06;29.23;;;13.70;;
43933;SDS011;59081;42.706;23.306;2023-02-25T03:12:24;27.20;;;13.88;;
43933;SDS011;59081;42.706;23.306;2023-02-25T03:14:50;24.50;;;13.48;;
43933;SDS011;59081;42.706;23.306;2023-02-25T03:17:16;27.08;;;14.05;;
43933;SDS011;59081;42.706;23.306;2023-02-25T03:32:11;29.23;;;12.20;;
43933;SDS011;59081;42.706;23.306;2023-02-25T03:34:48;28.83;;;14.10;;
43933;SDS011;59081;42.706;23.306;2023-02-25T03:37:21;27.35;;;13.75;;
43933;SDS011;59081;42.706;23.306;2023-02-25T03:39:52;21.30;;;12.70;;
43933;SDS011;59081;42.706;23.306;2023-02-25T03:42:24;25.67;;;15.35;;
43933;SDS011;59081;42.706;23.306;2023-02-25T03:44:57;26.38;;;13.15;;
43933;SDS011;59081;42.706;23.306;2023-02-25T03:47:26;32.15;;;15.73;;
43933;SDS011;59081;42.706;23.306;2023-02-25T03:49:55;26.58;;;14.43;;
43933;SDS011;59081;42.706;23.306;2023-02-25T03:52:25;34.00;;;19.75;;
43933;SDS011;59081;42.706;23.306;2023-02-25T03:54:53;33.08;;;17.08;;
43933;SDS011;59081;42.706;23.306;2023-02-25T03:57:20;36.60;;;16.83;;
43933;SDS011;59081;42.706;23.306;2023-02-25T03:59:53;34.33;;;18.80;;
43933;SDS011;59081;42.706;23.306;2023-02-25T04:02:30;32.08;;;17.70;;
43933;SDS011;59081;42.706;23.306;2023-02-25T04:04:57;31.05;;;17.35;;
43933;SDS011;59081;42.706;23.306;2023-02-25T04:07:23;33.92;;;18.13;;
43933;SDS011;59081;42.706;23.306;2023-02-25T04:09:49;38.47;;;18.98;;
43933;SDS011;59081;42.706;23.306;2023-02-25T04:12:14;36.28;;;18.25;;
43933;SDS011;59081;42.706;23.306;2023-02-25T04:14:40;34.70;;;18.50;;
43933;SDS011;59081;42.706;23.306;2023-02-25T04:17:06;30.67;;;17.45;;
43933;SDS011;59081;42.706;23.306;2023-02-25T04:19:31;35.92;;;17.67;;
43933;SDS011;59081;42.706;23.306;2023-02-25T04:21:57;33.83;;;18.55;;
43933;SDS011;59081;42.706;23.306;2023-02-25T04:24:24;38.17;;;18.40;;
43933;SDS011;59081;42.706;23.306;2023-02-25T04:26:50;39.13;;;18.17;;
43933;SDS011;59081;42.706;23.306;2023-02-25T04:29:22;35.70;;;18.23;;
43933;SDS011;59081;42.706;23.306;2023-02-25T04:31:50;35.45;;;18.80;;
43933;SDS011;59081;42.706;23.306;2023-02-25T04:34:16;38.83;;;19.05;;
43933;SDS011;59081;42.706;23.306;2023-02-25T04:36:42;36.45;;;19.25;;
43933;SDS011;59081;42.706;23.306;2023-02-25T04:39:08;36.13;;;19.88;;
43933;SDS011;59081;42.706;23.306;2023-02-25T04:41:34;35.55;;;19.02;;
43933;SDS011;59081;42.706;23.306;2023-02-25T04:44:00;35.63;;;19.52;;
43933;SDS011;59081;42.706;23.306;2023-02-25T04:46:29;31.30;;;15.07;;
43933;SDS011;59081;42.706;23.306;2023-02-25T04:48:55;46.40;;;18.80;;
43933;SDS011;59081;42.706;23.306;2023-02-25T04:51:23;33.83;;;17.33;;
43933;SDS011;59081;42.706;23.306;2023-02-25T04:53:49;35.22;;;18.20;;
43933;SDS011;59081;42.706;23.306;2023-02-25T04:56:14;35.17;;;17.35;;
43933;SDS011;59081;42.706;23.306;2023-02-25T04:58:40;37.42;;;16.08;;
43933;SDS011;59081;42.706;23.306;2023-02-25T05:01:06;37.85;;;19.02;;
43933;SDS011;59081;42.706;23.306;2023-02-25T05:03:33;39.35;;;19.85;;
43933;SDS011;59081;42.706;23.306;2023-02-25T05:06:00;33.58;;;17.60;;
43933;SDS011;59081;42.706;23.306;2023-02-25T05:08:25;39.78;;;17.65;;
43933;SDS011;59081;42.706;23.306;2023-02-25T05:10:51;28.58;;;16.45;;
43933;SDS011;59081;42.706;23.306;2023-02-25T05:13:17;39.00;;;17.98;;
43933;SDS011;59081;42.706;23.306;2023-02-25T05:15:43;32.90;;;17.95;;
43933;SDS011;59081;42.706;23.306;2023-02-25T05:18:09;34.05;;;18.17;;
43933;SDS011;59081;42.706;23.306;2023-02-25T05:20:38;38.50;;;18.15;;
43933;SDS011;59081;42.706;23.306;2023-02-25T05:23:07;42.15;;;22.20;;
43933;SDS011;59081;42.706;23.306;2023-02-25T05:25:32;40.90;;;20.40;;
43933;SDS011;59081;42.706;23.306;2023-02-25T05:27:59;40.72;;;20.27;;
43933;SDS011;59081;42.706;23.306;2023-02-25T05:30:25;42.10;;;20.85;;
43933;SDS011;59081;42.706;23.306;2023-02-25T05:32:50;42.40;;;20.73;;
43933;SDS011;59081;42.706;23.306;2023-02-25T05:35:16;42.92;;;22.05;;
43933;SDS011;59081;42.706;23.306;2023-02-25T05:37:42;47.60;;;22.50;;
43933;SDS011;59081;42.706;23.306;2023-02-25T05:40:08;44.33;;;20.65;;
43933;SDS011;59081;42.706;23.306;2023-02-25T05:42:38;42.97;;;20.95;;
43933;SDS011;59081;42.706;23.306;2023-02-25T05:45:04;42.00;;;22.02;;
43933;SDS011;59081;42.706;23.306;2023-02-25T05:47:31;27.98;;;15.02;;
43933;SDS011;59081;42.706;23.306;2023-02-25T05:49:56;39.30;;;18.90;;
43933;SDS011;59081;42.706;23.306;2023-02-25T05:52:22;46.30;;;20.00;;
43933;SDS011;59081;42.706;23.306;2023-02-25T05:54:51;25.42;;;12.63;;
43933;SDS011;59081;42.706;23.306;2023-02-25T05:57:17;42.83;;;19.92;;
43933;SDS011;59081;42.706;23.306;2023-02-25T05:59:43;39.38;;;21.05;;
43933;SDS011;59081;42.706;23.306;2023-02-25T06:02:09;39.33;;;16.20;;
43933;SDS011;59081;42.706;23.306;2023-02-25T06:04:34;41.85;;;19.27;;
43933;SDS011;59081;42.706;23.306;2023-02-25T06:07:00;32.17;;;17.73;;
43933;SDS011;59081;42.706;23.306;2023-02-25T06:09:27;39.97;;;18.38;;
43933;SDS011;59081;42.706;23.306;2023-02-25T06:11:53;33.90;;;18.23;;
43933;SDS011;59081;42.706;23.306;2023-02-25T06:14:19;17.27;;;9.48;;
43933;SDS011;59081;42.706;23.306;2023-02-25T06:16:44;43.45;;;21.40;;
43933;SDS011;59081;42.706;23.306;2023-02-25T06:19:10;37.10;;;18.35;;
43933;SDS011;59081;42.706;23.306;2023-02-25T06:21:36;41.33;;;21.75;;
43933;SDS011;59081;42.706;23.306;2023-02-25T06:24:02;44.05;;;21.90;;
43933;SDS011;59081;42.706;23.306;2023-02-25T06:26:28;33.30;;;16.33;;
43933;SDS011;59081;42.706;23.306;2023-02-25T06:28:54;44.38;;;21.38;;
43933;SDS011;59081;42.706;23.306;2023-02-25T06:31:21;33.50;;;15.98;;
43933;SDS011;59081;42.706;23.306;2023-02-25T06:33:48;43.65;;;20.02;;
43933;SDS011;59081;42.706;23.306;2023-02-25T06:36:17;36.67;;;16.50;;
43933;SDS011;59081;42.706;23.306;2023-02-25T06:38:45;35.70;;;17.17;;
43933;SDS011;59081;42.706;23.306;2023-02-25T06:41:12;43.78;;;20.42;;
43933;SDS011;59081;42.706;23.306;2023-02-25T06:43:40;30.42;;;14.70;;
43933;SDS011;59081;42.706;23.306;2023-02-25T06:46:06;42.15;;;20.60;;
43933;SDS011;59081;42.706;23.306;2023-02-25T06:48:34;34.60;;;17.33;;
43933;SDS011;59081;42.706;23.306;2023-02-25T06:50:59;40.47;;;18.30;;
43933;SDS011;59081;42.706;23.306;2023-02-25T06:53:27;27.20;;;14.00;;
43933;SDS011;59081;42.706;23.306;2023-02-25T06:55:53;36.30;;;15.70;;
43933;SDS011;59081;42.706;23.306;2023-02-25T06:58:18;33.40;;;17.98;;
43933;SDS011;59081;42.706;23.306;2023-02-25T07:00:44;35.67;;;16.38;;
43933;SDS011;59081;42.706;23.306;2023-02-25T07:03:11;31.73;;;15.18;;
43933;SDS011;59081;42.706;23.306;2023-02-25T07:05:37;39.03;;;22.27;;
43933;SDS011;59081;42.706;23.306;2023-02-25T07:08:03;28.55;;;14.70;;
43933;SDS011;59081;42.706;23.306;2023-02-25T07:10:29;32.80;;;13.05;;
43933;SDS011;59081;42.706;23.306;2023-02-25T07:12:54;46.42;;;20.60;;
43933;SDS011;59081;42.706;23.306;2023-02-25T07:15:20;42.03;;;17.90;;
43933;SDS011;59081;42.706;23.306;2023-02-25T07:17:46;37.10;;;17.27;;
43933;SDS011;59081;42.706;23.306;2023-02-25T07:20:12;36.85;;;20.08;;
43933;SDS011;59081;42.706;23.306;2023-02-25T07:22:37;33.47;;;15.82;;
43933;SDS011;59081;42.706;23.306;2023-02-25T07:25:03;41.47;;;23.40;;
43933;SDS011;59081;42.706;23.306;2023-02-25T07:27:29;38.25;;;18.85;;
43933;SDS011;59081;42.706;23.306;2023-02-25T07:29:54;39.20;;;17.15;;
43933;SDS011;59081;42.706;23.306;2023-02-25T07:32:22;35.65;;;17.27;;
43933;SDS011;59081;42.706;23.306;2023-02-25T07:34:49;32.88;;;15.07;;
43933;SDS011;59081;42.706;23.306;2023-02-25T07:37:14;30.05;;;16.10;;
43933;SDS011;59081;42.706;23.306;2023-02-25T07:39:40;32.38;;;17.60;;
43933;SDS011;59081;42.706;23.306;2023-02-25T07:42:05;32.78;;;16.30;;
43933;SDS011;59081;42.706;23.306;2023-02-25T07:44:31;39.25;;;14.60;;
43933;SDS011;59081;42.706;23.306;2023-02-25T07:47:00;30.52;;;14.93;;
43933;SDS011;59081;42.706;23.306;2023-02-25T07:49:29;27.33;;;15.02;;
43933;SDS011;59081;42.706;23.306;2023-02-25T07:51:58;28.90;;;16.00;;
43933;SDS011;59081;42.706;23.306;2023-02-25T07:54:25;26.10;;;12.20;;
43933;SDS011;59081;42.706;23.306;2023-02-25T07:57:11;33.33;;;14.82;;
43933;SDS011;59081;42.706;23.306;2023-02-25T07:59:38;36.95;;;15.10;;
43933;SDS011;59081;42.706;23.306;2023-02-25T08:02:14;32.75;;;15.80;;
43933;SDS011;59081;42.706;23.306;2023-02-25T08:04:40;30.45;;;13.43;;
43933;SDS011;59081;42.706;23.306;2023-02-25T08:07:06;30.08;;;14.27;;
43933;SDS011;59081;42.706;23.306;2023-02-25T08:09:40;29.67;;;14.38;;
43933;SDS011;59081;42.706;23.306;2023-02-25T08:12:07;35.67;;;14.45;;
43933;SDS011;59081;42.706;23.306;2023-02-25T08:14:42;32.83;;;13.45;;
43933;SDS011;59081;42.706;23.306;2023-02-25T08:19:45;35.88;;;16.83;;
43933;SDS011;59081;42.706;23.306;2023-02-25T08:22:11;41.42;;;17.17;;
43933;SDS011;59081;42.706;23.306;2023-02-25T08:24:40;55.28;;;18.73;;
43933;SDS011;59081;42.706;23.306;2023-02-25T08:27:06;68.97;;;24.40;;
43933;SDS011;59081;42.706;23.306;2023-02-25T08:29:35;52.45;;;18.45;;
43933;SDS011;59081;42.706;23.306;2023-02-25T08:32:01;60.22;;;21.45;;
43933;SDS011;59081;42.706;23.306;2023-02-25T08:34:30;43.03;;;17.35;;
43933;SDS011;59081;42.706;23.306;2023-02-25T08:36:56;50.65;;;19.40;;
43933;SDS011;59081;42.706;23.306;2023-02-25T08:39:23;42.00;;;18.25;;
43933;SDS011;59081;42.706;23.306;2023-02-25T08:41:49;44.75;;;17.35;;
43933;SDS011;59081;42.706;23.306;2023-02-25T08:44:15;45.35;;;19.30;;
43933;SDS011;59081;42.706;23.306;2023-02-25T08:46:44;39.33;;;17.95;;
43933;SDS011;59081;42.706;23.306;2023-02-25T08:49:10;35.03;;;15.77;;
43933;SDS011;59081;42.706;23.306;2023-02-25T08:51:38;34.95;;;17.63;;
43933;SDS011;59081;42.706;23.306;2023-02-25T08:54:10;37.13;;;16.80;;
43933;SDS011;59081;42.706;23.306;2023-02-25T08:56:37;37.80;;;15.73;;
43933;SDS011;59081;42.706;23.306;2023-02-25T08:59:08;35.40;;;14.93;;
43933;SDS011;59081;42.706;23.306;2023-02-25T09:01:36;27.20;;;13.75;;
43933;SDS011;59081;42.706;23.306;2023-02-25T09:04:12;32.88;;;15.25;;
43933;SDS011;59081;42.706;23.306;2023-02-25T09:06:43;30.17;;;15.60;;
43933;SDS011;59081;42.706;23.306;2023-02-25T09:09:13;43.00;;;15.90;;
43933;SDS011;59081;42.706;23.306;2023-02-25T09:11:42;29.60;;;15.77;;
43933;SDS011;59081;42.706;23.306;2023-02-25T09:14:13;36.03;;;15.57;;
43933;SDS011;59081;42.706;23.306;2023-02-25T09:16:39;49.38;;;18.67;;
43933;SDS011;59081;42.706;23.306;2023-02-25T09:19:05;31.83;;;16.52;;
43933;SDS011;59081;42.706;23.306;2023-02-25T09:21:31;35.95;;;16.15;;
43933;SDS011;59081;42.706;23.306;2023-02-25T09:23:58;32.90;;;15.85;;
43933;SDS011;59081;42.706;23.306;2023-02-25T09:26:24;34.88;;;14.98;;
43933;SDS011;59081;42.706;23.306;2023-02-25T09:28:50;37.75;;;17.13;;
43933;SDS011;59081;42.706;23.306;2023-02-25T09:31:18;34.20;;;14.45;;
43933;SDS011;59081;42.706;23.306;2023-02-25T09:33:47;33.40;;;15.98;;
43933;SDS011;59081;42.706;23.306;2023-02-25T09:38:45;34.67;;;13.23;;
43933;SDS011;59081;42.706;23.306;2023-02-25T09:43:47;32.05;;;15.65;;
43933;SDS011;59081;42.706;23.306;2023-02-25T09:46:16;33.40;;;13.70;;
43933;SDS011;59081;42.706;23.306;2023-02-25T09:49:04;34.33;;;14.10;;
43933;SDS011;59081;42.706;23.306;2023-02-25T09:51:36;28.42;;;11.68;;
43933;SDS011;59081;42.706;23.306;2023-02-25T09:57:11;28.77;;;13.02;;
43933;SDS011;59081;42.706;23.306;2023-02-25T09:59:43;37.08;;;14.50;;
43933;SDS011;59081;42.706;23.306;2023-02-25T10:02:27;34.58;;;15.98;;
43933;SDS011;59081;42.706;23.306;2023-02-25T10:10:44;43.95;;;17.95;;
43933;SDS011;59081;42.706;23.306;2023-02-25T10:16:01;45.70;;;18.83;;
43933;SDS011;59081;42.706;23.306;2023-02-25T10:21:33;38.67;;;16.40;;
43933;SDS011;59081;42.706;23.306;2023-02-25T10:24:19;42.08;;;16.38;;
43933;SDS011;59081;42.706;23.306;2023-02-25T10:27:07;37.28;;;16.05;;
43933;SDS011;59081;42.706;23.306;2023-02-25T10:30:04;38.80;;;15.88;;
43933;SDS011;59081;42.706;23.306;2023-02-25T10:32:44;32.65;;;16.27;;
43933;SDS011;59081;42.706;23.306;2023-02-25T10:35:13;30.13;;;10.90;;
43933;SDS011;59081;42.706;23.306;2023-02-25T10:37:49;35.08;;;13.60;;
43933;SDS011;59081;42.706;23.306;2023-02-25T10:40:16;39.60;;;13.98;;
43933;SDS011;59081;42.706;23.306;2023-02-25T10:42:46;42.25;;;11.60;;
43933;SDS011;59081;42.706;23.306;2023-02-25T10:45:16;36.15;;;12.40;;
43933;SDS011;59081;42.706;23.306;2023-02-25T10:47:48;32.53;;;10.82;;
43933;SDS011;59081;42.706;23.306;2023-02-25T10:50:23;40.85;;;11.75;;
43933;SDS011;59081;42.706;23.306;2023-02-25T10:52:52;25.85;;;11.95;;
43933;SDS011;59081;42.706;23.306;2023-02-25T10:55:25;35.58;;;12.52;;
43933;SDS011;59081;42.706;23.306;2023-02-25T10:57:51;38.15;;;14.02;;
43933;SDS011;59081;42.706;23.306;2023-02-25T11:02:53;54.42;;;17.27;;
43933;SDS011;59081;42.706;23.306;2023-02-25T11:05:36;29.63;;;10.95;;
43933;SDS011;59081;42.706;23.306;2023-02-25T11:08:05;37.60;;;12.02;;
43933;SDS011;59081;42.706;23.306;2023-02-25T11:11:01;33.60;;;10.93;;
43933;SDS011;59081;42.706;23.306;2023-02-25T11:13:32;29.98;;;10.00;;
43933;SDS011;59081;42.706;23.306;2023-02-25T11:16:03;33.60;;;11.30;;
43933;SDS011;59081;42.706;23.306;2023-02-25T11:18:34;25.05;;;8.65;;
43933;SDS011;59081;42.706;23.306;2023-02-25T11:21:06;25.83;;;10.40;;
43933;SDS011;59081;42.706;23.306;2023-02-25T11:23:43;32.10;;;9.48;;
43933;SDS011;59081;42.706;23.306;2023-02-25T11:26:15;43.20;;;11.32;;
43933;SDS011;59081;42.706;23.306;2023-02-25T11:28:51;32.08;;;10.30;;
43933;SDS011;59081;42.706;23.306;2023-02-25T11:33:49;36.08;;;11.15;;
43933;SDS011;59081;42.706;23.306;2023-02-25T11:36:22;27.25;;;11.00;;
43933;SDS011;59081;42.706;23.306;2023-02-25T11:38:48;22.42;;;9.13;;
43933;SDS011;59081;42.706;23.306;2023-02-25T11:41:26;37.53;;;12.48;;
43933;SDS011;59081;42.706;23.306;2023-02-25T11:44:06;23.60;;;8.65;;
43933;SDS011;59081;42.706;23.306;2023-02-25T11:46:43;41.83;;;8.93;;
43933;SDS011;59081;42.706;23.306;2023-02-25T11:49:16;36.30;;;10.32;;
43933;SDS011;59081;42.706;23.306;2023-02-25T11:52:06;28.92;;;9.57;;
43933;SDS011;59081;42.706;23.306;2023-02-25T11:54:53;28.17;;;8.20;;
43933;SDS011;59081;42.706;23.306;2023-02-25T11:57:47;28.02;;;6.53;;
43933;SDS011;59081;42.706;23.306;2023-02-25T12:03:14;25.83;;;8.18;;
43933;SDS011;59081;42.706;23.306;2023-02-25T12:05:51;30.13;;;4.90;;
43933;SDS011;59081;42.706;23.306;2023-02-25T12:22:48;5.93;;;1.67;;
43933;SDS011;59081;42.706;23.306;2023-02-25T12:25:30;13.43;;;4.18;;
43933;SDS011;59081;42.706;23.306;2023-02-25T12:30:56;21.05;;;5.43;;
43933;SDS011;59081;42.706;23.306;2023-02-25T12:36:54;19.55;;;4.85;;
43933;SDS011;59081;42.706;23.306;2023-02-25T12:42:12;10.48;;;4.45;;
43933;SDS011;59081;42.706;23.306;2023-02-25T13:14:03;22.48;;;6.35;;
43933;SDS011;59081;42.706;23.306;2023-02-25T13:22:33;20.45;;;5.15;;
43933;SDS011;59081;42.706;23.306;2023-02-25T13:27:54;17.98;;;5.05;;
43933;SDS011;59081;42.706;23.306;2023-02-25T13:30:34;17.77;;;4.38;;
43933;SDS011;59081;42.706;23.306;2023-02-25T13:33:22;14.98;;;4.55;;
43933;SDS011;59081;42.706;23.306;2023-02-25T13:38:45;5.22;;;3.15;;
43933;SDS011;59081;42.706;23.306;2023-02-25T13:54:54;7.28;;;3.05;;
43933;SDS011;59081;42.706;23.306;2023-02-25T14:02:53;16.83;;;5.63;;
43933;SDS011;59081;42.706;23.306;2023-02-25T14:06:00;7.93;;;2.03;;
43933;SDS011;59081;42.706;23.306;2023-02-25T14:17:10;17.92;;;5.18;;
43933;SDS011;59081;42.706;23.306;2023-02-25T14:19:39;14.43;;;3.80;;
43933;SDS011;59081;42.706;23.306;2023-02-25T14:41:51;16.55;;;5.72;;
43933;SDS011;59081;42.706;23.306;2023-02-25T14:44:42;14.13;;;5.25;;
43933;SDS011;59081;42.706;23.306;2023-02-25T14:47:18;21.13;;;5.75;;
43933;SDS011;59081;42.706;23.306;2023-02-25T14:52:33;20.20;;;4.28;;
43933;SDS011;59081;42.706;23.306;2023-02-25T14:55:27;18.75;;;5.40;;
43933;SDS011;59081;42.706;23.306;2023-02-25T14:58:12;10.05;;;2.50;;
43933;SDS011;59081;42.706;23.306;2023-02-25T15:01:04;18.77;;;5.10;;
43933;SDS011;59081;42.706;23.306;2023-02-25T15:03:57;20.55;;;4.97;;
43933;SDS011;59081;42.706;23.306;2023-02-25T15:06:45;9.95;;;2.55;;
43933;SDS011;59081;42.706;23.306;2023-02-25T15:09:36;9.73;;;3.03;;
43933;SDS011;59081;42.706;23.306;2023-02-25T15:12:21;14.77;;;4.50;;
43933;SDS011;59081;42.706;23.306;2023-02-25T15:20:33;4.07;;;2.20;;
43933;SDS011;59081;42.706;23.306;2023-02-25T15:23:13;15.48;;;3.75;;
43933;SDS011;59081;42.706;23.306;2023-02-25T15:36:01;16.85;;;3.72;;
43933;SDS011;59081;42.706;23.306;2023-02-25T15:38:49;22.85;;;5.75;;
43933;SDS011;59081;42.706;23.306;2023-02-25T15:48:43;25.95;;;6.88;;
43933;SDS011;59081;42.706;23.306;2023-02-25T15:51:42;19.15;;;3.72;;
43933;SDS011;59081;42.706;23.306;2023-02-25T15:57:00;17.98;;;5.57;;
43933;SDS011;59081;42.706;23.306;2023-02-25T16:05:16;13.52;;;4.95;;
43933;SDS011;59081;42.706;23.306;2023-02-25T16:08:04;18.00;;;4.65;;
43933;SDS011;59081;42.706;23.306;2023-02-25T16:10:42;11.45;;;2.67;;
43933;SDS011;59081;42.706;23.306;2023-02-25T16:13:13;22.38;;;6.53;;
43933;SDS011;59081;42.706;23.306;2023-02-25T16:15:46;30.30;;;5.80;;
43933;SDS011;59081;42.706;23.306;2023-02-25T16:18:20;14.02;;;4.97;;
43933;SDS011;59081;42.706;23.306;2023-02-25T16:21:05;14.25;;;3.97;;
43933;SDS011;59081;42.706;23.306;2023-02-25T16:23:38;19.70;;;5.78;;
43933;SDS011;59081;42.706;23.306;2023-02-25T16:26:21;19.33;;;7.03;;
43933;SDS011;59081;42.706;23.306;2023-02-25T16:34:12;15.98;;;4.78;;
43933;SDS011;59081;42.706;23.306;2023-02-25T16:39:53;14.25;;;4.43;;
43933;SDS011;59081;42.706;23.306;2023-02-25T16:42:19;17.65;;;6.20;;
43933;SDS011;59081;42.706;23.306;2023-02-25T16:44:46;12.10;;;5.43;;
43933;SDS011;59081;42.706;23.306;2023-02-25T16:47:30;12.98;;;4.90;;
43933;SDS011;59081;42.706;23.306;2023-02-25T16:49:59;19.92;;;5.38;;
43933;SDS011;59081;42.706;23.306;2023-02-25T16:52:36;20.77;;;5.18;;
43933;SDS011;59081;42.706;23.306;2023-02-25T16:55:05;14.63;;;4.55;;
43933;SDS011;59081;42.706;23.306;2023-02-25T17:00:12;18.15;;;5.43;;
43933;SDS011;59081;42.706;23.306;2023-02-25T17:02:45;14.45;;;4.93;;
43933;SDS011;59081;42.706;23.306;2023-02-25T17:05:29;17.33;;;4.65;;
43933;SDS011;59081;42.706;23.306;2023-02-25T17:07:58;18.38;;;4.32;;
43933;SDS011;59081;42.706;23.306;2023-02-25T17:10:34;11.50;;;3.65;;
43933;SDS011;59081;42.706;23.306;2023-02-25T17:15:56;20.85;;;5.43;;
43933;SDS011;59081;42.706;23.306;2023-02-25T17:20:59;26.63;;;5.72;;
43933;SDS011;59081;42.706;23.306;2023-02-25T17:23:39;21.25;;;6.38;;
43933;SDS011;59081;42.706;23.306;2023-02-25T17:26:06;17.70;;;5.13;;
43933;SDS011;59081;42.706;23.306;2023-02-25T17:28:37;22.53;;;5.70;;
43933;SDS011;59081;42.706;23.306;2023-02-25T17:33:33;13.18;;;3.78;;
43933;SDS011;59081;42.706;23.306;2023-02-25T17:36:08;17.15;;;5.38;;
43933;SDS011;59081;42.706;23.306;2023-02-25T17:38:38;15.80;;;4.88;;
43933;SDS011;59081;42.706;23.306;2023-02-25T17:41:06;16.60;;;3.92;;
43933;SDS011;59081;42.706;23.306;2023-02-25T17:46:14;18.27;;;5.85;;
43933;SDS011;59081;42.706;23.306;2023-02-25T17:48:49;15.18;;;4.90;;
43933;SDS011;59081;42.706;23.306;2023-02-25T17:51:17;8.88;;;3.95;;
43933;SDS011;59081;42.706;23.306;2023-02-25T17:53:56;15.10;;;4.32;;
43933;SDS011;59081;42.706;23.306;2023-02-25T17:56:26;8.05;;;3.35;;
43933;SDS011;59081;42.706;23.306;2023-02-25T17:58:58;13.43;;;3.13;;
43933;SDS011;59081;42.706;23.306;2023-02-25T18:01:57;19.52;;;4.30;;
43933;SDS011;59081;42.706;23.306;2023-02-25T18:04:25;6.55;;;2.17;;
43933;SDS011;59081;42.706;23.306;2023-02-25T18:07:02;13.93;;;4.30;;
43933;SDS011;59081;42.706;23.306;2023-02-25T18:09:44;11.48;;;5.30;;
43933;SDS011;59081;42.706;23.306;2023-02-25T18:12:20;23.63;;;5.25;;
43933;SDS011;59081;42.706;23.306;2023-02-25T18:14:52;14.85;;;5.15;;
43933;SDS011;59081;42.706;23.306;2023-02-25T18:20:06;15.32;;;5.25;;
43933;SDS011;59081;42.706;23.306;2023-02-25T18:22:52;24.63;;;5.90;;
43933;SDS011;59081;42.706;23.306;2023-02-25T18:27:54;21.45;;;6.30;;
43933;SDS011;59081;42.706;23.306;2023-02-25T18:30:21;16.35;;;5.25;;